createdAt,value
2023-02-28T00:01:43.324Z,102522.27
2023-02-28T00:04:12.256Z,102523.33
2023-02-28T00:06:41.081Z,102525.83
2023-02-28T00:09:09.509Z,102527.46
2023-02-28T00:11:39.213Z,102524.95
2023-02-28T00:14:10.450Z,102521.27
2023-02-28T00:16:39.270Z,102518.04
2023-02-28T00:19:14.755Z,102521.73
2023-02-28T00:21:44.416Z,102520.67
2023-02-28T00:24:15.237Z,102521.65
2023-02-28T00:26:43.925Z,102520.95
2023-02-28T00:29:12.730Z,102519.16
2023-02-28T00:31:41.591Z,102519.70
2023-02-28T00:34:10.302Z,102521.43
2023-02-28T00:36:39.469Z,102524.31
2023-02-28T00:39:07.901Z,102521.11
2023-02-28T00:41:36.596Z,102522.86
2023-02-28T00:44:05.649Z,102522.52
2023-02-28T00:46:34.841Z,102518.65
2023-02-28T00:49:03.258Z,102520.82
2023-02-28T00:51:32.287Z,102521.73
2023-02-28T00:54:01.915Z,102519.79
2023-02-28T00:56:31.040Z,102522.59
2023-02-28T00:58:59.566Z,102525.37
2023-02-28T01:01:28.569Z,102521.66
2023-02-28T01:03:57.631Z,102523.48
2023-02-28T01:06:28.861Z,102525.84
2023-02-28T01:08:57.561Z,102527.77
2023-02-28T01:11:27.071Z,102533.81
2023-02-28T01:13:55.893Z,102537.61
2023-02-28T01:16:24.856Z,102536.80
2023-02-28T01:18:54.995Z,102537.55
2023-02-28T01:21:23.566Z,102530.27
2023-02-28T01:23:52.678Z,102533.48
2023-02-28T01:26:23.249Z,102530.77
2023-02-28T01:28:53.400Z,102530.89
2023-02-28T01:31:22.687Z,102525.98
2023-02-28T01:33:52.089Z,102527.19
2023-02-28T01:36:24.499Z,102520.85
2023-02-28T01:38:55.481Z,102517.11
2023-02-28T01:41:32.650Z,102516.33
2023-02-28T01:44:20.404Z,102520.02
2023-02-28T01:46:49.358Z,102518.69
2023-02-28T01:49:19.869Z,102519.83
2023-02-28T01:51:56.146Z,102517.46
2023-02-28T01:54:32.407Z,102517.73
2023-02-28T01:57:05.394Z,102511.12
2023-02-28T01:59:51.277Z,102514.52
2023-02-28T02:02:23.625Z,102512.02
2023-02-28T02:05:07.854Z,102515.90
2023-02-28T02:07:42.620Z,102514.81
2023-02-28T02:10:19.969Z,102512.64
2023-02-28T02:12:54.564Z,102515.90
2023-02-28T02:15:32.061Z,102516.50
2023-02-28T02:18:12.619Z,102517.98
2023-02-28T02:21:14.021Z,102515.90
2023-02-28T02:23:48.256Z,102517.57
2023-02-28T02:26:17.159Z,102520.80
2023-02-28T02:28:51.567Z,102519.70
2023-02-28T02:31:26.673Z,102523.08
2023-02-28T02:34:27.189Z,102524.17
2023-02-28T02:37:04.984Z,102527.05
2023-02-28T02:39:46.621Z,102529.39
2023-02-28T02:42:25.941Z,102526.88
2023-02-28T02:45:03.552Z,102520.28
2023-02-28T02:47:34.162Z,102522.23
2023-02-28T02:50:06.554Z,102527.98
2023-02-28T02:52:50.756Z,102532.27
2023-02-28T02:55:21.817Z,102527.81
2023-02-28T02:58:04.974Z,102527.95
2023-02-28T03:00:42.621Z,102526.67
2023-02-28T03:03:14.033Z,102526.01
2023-02-28T03:05:52.545Z,102529.80
2023-02-28T03:08:21.330Z,102523.73
2023-02-28T03:11:05.411Z,102530.98
2023-02-28T03:14:05.391Z,102533.88
2023-02-28T03:16:37.862Z,102532.61
2023-02-28T03:19:54.512Z,102531.39
2023-02-28T03:22:56.395Z,102534.36
2023-02-28T03:25:39.645Z,102536.27
2023-02-28T03:28:24.810Z,102536.52
2023-02-28T03:31:00.455Z,102535.96
2023-02-28T03:33:40.033Z,102538.17
2023-02-28T03:36:19.196Z,102539.95
2023-02-28T03:38:55.743Z,102535.23
2023-02-28T03:41:30.193Z,102538.16
2023-02-28T03:44:06.958Z,102538.91
2023-02-28T03:46:42.213Z,102544.60
2023-02-28T03:49:26.276Z,102547.46
2023-02-28T03:51:57.679Z,102548.77
2023-02-28T03:54:37.483Z,102550.34
2023-02-28T03:57:24.327Z,102552.38
2023-02-28T04:00:00.835Z,102550.80
2023-02-28T04:02:29.185Z,102551.39
2023-02-28T04:04:58.737Z,102553.93
2023-02-28T04:07:30.783Z,102553.90
2023-02-28T04:10:01.395Z,102553.89
2023-02-28T04:12:29.768Z,102560.96
2023-02-28T04:14:58.566Z,102561.45
2023-02-28T04:17:27.395Z,102561.79
2023-02-28T04:19:58.646Z,102556.85
2023-02-28T04:22:29.865Z,102557.40
2023-02-28T04:24:58.201Z,102559.87
2023-02-28T04:27:26.741Z,102558.49
2023-02-28T04:29:56.752Z,102560.38
2023-02-28T04:32:26.057Z,102561.52
2023-02-28T04:34:55.016Z,102560.65
2023-02-28T04:37:29.266Z,102564.10
2023-02-28T04:39:57.722Z,102563.09
2023-02-28T04:42:25.965Z,102565.83
2023-02-28T04:44:54.347Z,102563.92
2023-02-28T04:47:22.937Z,102563.16
2023-02-28T04:49:51.324Z,102564.40
2023-02-28T04:52:20.042Z,102572.08
2023-02-28T04:54:49.209Z,102571.83
2023-02-28T04:57:17.677Z,102573.70
2023-02-28T04:59:45.981Z,102572.16
2023-02-28T05:02:15.263Z,102570.36
2023-02-28T05:04:44.001Z,102572.27
2023-02-28T05:07:12.589Z,102566.42
2023-02-28T13:24:34.704Z,102375.64
2023-02-28T13:27:04.733Z,102374.54
2023-02-28T13:29:37.709Z,102372.84
2023-02-28T13:32:12.440Z,102374.58
2023-02-28T13:35:09.268Z,102374.35
2023-02-28T13:37:46.324Z,102368.30
2023-02-28T13:40:14.574Z,102364.88
2023-02-28T13:42:46.466Z,102359.19
2023-02-28T13:45:15.329Z,102362.50
2023-02-28T13:48:01.502Z,102356.84
2023-02-28T13:50:36.674Z,102353.09
2023-02-28T13:53:19.566Z,102359.33
2023-02-28T13:55:54.613Z,102352.16
2023-02-28T13:58:37.914Z,102342.61
2023-02-28T14:01:34.091Z,102345.27
2023-02-28T14:04:33.694Z,102336.08
2023-02-28T14:07:06.490Z,102333.98
2023-02-28T14:10:01.010Z,102332.41
2023-02-28T14:12:51.461Z,102334.23
2023-02-28T14:15:41.536Z,102329.52
2023-02-28T14:18:27.079Z,102326.80
2023-02-28T14:21:26.605Z,102331.15
2023-02-28T14:24:24.191Z,102336.11
2023-02-28T14:26:58.937Z,102336.29
2023-02-28T14:29:52.065Z,102332.99
2023-02-28T14:32:29.969Z,102335.59
2023-02-28T14:35:19.019Z,102334.80
2023-02-28T14:37:49.795Z,102327.66
2023-02-28T14:40:26.894Z,102316.42
2023-02-28T14:43:01.053Z,102321.29
2023-02-28T14:45:33.046Z,102324.19
2023-02-28T14:48:05.271Z,102318.59
2023-02-28T14:50:38.871Z,102317.18
2023-02-28T14:53:16.958Z,102321.12
2023-02-28T14:55:50.472Z,102319.77
2023-02-28T14:58:28.876Z,102325.65
2023-02-28T15:01:02.693Z,102326.66
2023-02-28T15:03:33.421Z,102324.14
2023-02-28T15:06:05.354Z,102325.60
2023-02-28T15:08:37.398Z,102330.79
2023-02-28T15:11:08.298Z,102330.58
2023-02-28T15:13:47.508Z,102329.10
2023-02-28T15:16:26.393Z,102324.23
2023-02-28T15:19:00.679Z,102327.91
2023-02-28T15:21:34.761Z,102327.13
2023-02-28T15:24:54.634Z,102321.77
2023-02-28T15:27:33.487Z,102322.60
2023-02-28T15:30:07.616Z,102326.50
2023-02-28T15:32:40.255Z,102327.52
2023-02-28T15:35:29.887Z,102331.11
2023-02-28T15:38:16.888Z,102332.55
2023-02-28T15:40:54.819Z,102333.80
2023-02-28T15:43:35.174Z,102339.39
2023-02-28T15:46:07.663Z,102338.98
2023-02-28T15:48:39.306Z,102340.45
2023-02-28T15:51:16.595Z,102345.77
2023-02-28T15:54:01.287Z,102346.20
2023-02-28T15:56:30.511Z,102351.00
2023-02-28T15:59:02.270Z,102352.36
2023-02-28T16:01:43.562Z,102350.84
2023-02-28T16:04:21.510Z,102349.70
2023-02-28T16:06:55.862Z,102351.38
2023-02-28T16:09:25.629Z,102347.91
2023-02-28T16:11:58.117Z,102353.71
2023-02-28T16:14:28.894Z,102361.95
2023-02-28T16:17:06.594Z,102357.89
2023-02-28T16:19:34.986Z,102360.16
2023-02-28T16:22:03.703Z,102362.71
2023-02-28T16:24:32.046Z,102359.11
2023-02-28T16:27:01.778Z,102361.14
2023-02-28T16:29:35.822Z,102362.61
2023-02-28T16:32:07.219Z,102368.30
2023-02-28T16:34:35.821Z,102373.09
2023-02-28T16:37:06.652Z,102377.88
2023-02-28T16:39:35.307Z,102385.98
2023-02-28T16:42:04.125Z,102394.77
2023-02-28T16:44:37.025Z,102392.17
2023-02-28T16:47:05.917Z,102392.72
2023-02-28T16:49:34.539Z,102390.63
2023-02-28T16:52:03.158Z,102391.16
2023-02-28T16:54:31.638Z,102388.54
2023-02-28T16:57:01.184Z,102389.25
2023-02-28T16:59:31.043Z,102392.92
2023-02-28T17:02:00.088Z,102395.36
2023-02-28T17:04:30.394Z,102390.81
2023-02-28T17:06:59.672Z,102391.14
2023-02-28T17:09:36.720Z,102389.04
2023-02-28T17:12:10.634Z,102387.60
2023-02-28T17:14:39.252Z,102388.27
2023-02-28T17:17:08.773Z,102387.73
2023-02-28T17:19:40.084Z,102386.30
2023-02-28T17:22:09.637Z,102391.64
2023-02-28T17:24:38.455Z,102394.84
2023-02-28T17:27:08.910Z,102393.88
2023-02-28T17:29:41.675Z,102396.62
2023-02-28T17:32:17.916Z,102396.13
2023-02-28T17:34:47.290Z,102394.04
2023-02-28T17:37:18.335Z,102394.84
2023-02-28T17:39:46.978Z,102394.27
2023-02-28T17:42:15.716Z,102390.02
2023-02-28T17:44:44.121Z,102382.29
2023-02-28T17:47:13.606Z,102383.54
2023-02-28T17:49:42.899Z,102383.61
2023-02-28T17:52:11.951Z,102380.63
2023-02-28T17:54:40.588Z,102376.84
2023-02-28T17:57:16.009Z,102372.52
2023-02-28T17:59:45.015Z,102372.88
2023-02-28T18:02:14.853Z,102366.43
2023-02-28T18:04:43.467Z,102365.80
2023-02-28T18:07:13.155Z,102366.73
2023-02-28T18:09:41.351Z,102369.64
2023-02-28T18:12:10.453Z,102371.02
2023-02-28T18:14:39.013Z,102369.04
2023-02-28T18:17:13.576Z,102364.98
2023-02-28T18:19:42.361Z,102354.35
2023-02-28T18:22:11.142Z,102353.01
2023-02-28T18:24:39.907Z,102352.52
2023-02-28T18:27:08.878Z,102356.17
2023-02-28T18:29:41.816Z,102354.02
2023-02-28T18:32:10.782Z,102354.74
2023-02-28T18:34:39.611Z,102352.80
2023-02-28T18:37:08.159Z,102352.77
2023-02-28T18:39:36.732Z,102358.30
2023-02-28T18:42:05.322Z,102362.08
2023-02-28T18:44:38.401Z,102359.56
2023-02-28T18:47:10.141Z,102362.90
2023-02-28T18:49:38.626Z,102359.17
2023-02-28T18:52:07.344Z,102363.77
2023-02-28T18:54:36.665Z,102356.14
2023-02-28T18:57:05.429Z,102359.27
2023-02-28T18:59:33.886Z,102361.30
2023-02-28T19:02:02.831Z,102358.13
2023-02-28T19:04:32.156Z,102354.58
2023-02-28T19:07:01.745Z,102361.34
2023-02-28T19:09:30.737Z,102362.59
2023-02-28T19:12:00.003Z,102355.27
2023-02-28T19:14:28.691Z,102352.27
2023-02-28T19:16:57.018Z,102360.07
2023-02-28T19:19:25.525Z,102364.77
2023-02-28T19:21:55.497Z,102365.77
2023-02-28T19:24:24.584Z,102369.67
2023-02-28T19:26:53.122Z,102378.85
2023-02-28T19:29:22.158Z,102375.29
2023-02-28T19:31:51.011Z,102371.80
2023-02-28T19:34:20.004Z,102374.89
2023-02-28T19:36:48.578Z,102378.16
2023-02-28T19:39:19.196Z,102370.79
2023-02-28T19:41:50.721Z,102369.54
2023-02-28T19:44:19.205Z,102374.24
2023-02-28T19:46:48.603Z,102377.53
2023-02-28T19:49:18.777Z,102379.92
2023-02-28T19:51:47.406Z,102378.48
2023-02-28T19:54:21.136Z,102384.95
2023-02-28T19:56:49.707Z,102389.99
2023-02-28T19:59:25.963Z,102394.13
2023-02-28T20:01:59.858Z,102397.44
2023-02-28T20:04:28.950Z,102397.45
2023-02-28T20:06:57.512Z,102402.51
2023-02-28T20:09:26.591Z,102395.25
2023-02-28T20:11:59.578Z,102390.55
2023-02-28T20:14:28.089Z,102389.21
2023-02-28T20:16:58.218Z,102393.75
2023-02-28T20:19:27.215Z,102393.38
2023-02-28T20:21:55.993Z,102401.52
2023-02-28T20:24:26.279Z,102399.67
2023-02-28T20:26:56.029Z,102402.65
2023-02-28T20:29:25.186Z,102399.70
2023-02-28T20:31:58.901Z,102397.27
2023-02-28T20:34:27.444Z,102398.26
2023-02-28T20:36:58.998Z,102392.88
2023-02-28T20:39:27.421Z,102391.21
2023-02-28T20:41:57.138Z,102388.70
2023-02-28T20:44:26.102Z,102391.01
2023-02-28T20:46:55.378Z,102396.62
2023-02-28T20:49:24.301Z,102397.39
2023-02-28T20:51:52.634Z,102394.00
2023-02-28T20:54:22.046Z,102388.56
2023-02-28T20:56:50.745Z,102387.59
2023-02-28T20:59:21.480Z,102386.98
2023-02-28T21:01:50.156Z,102386.58
2023-02-28T21:04:19.086Z,102390.52
2023-02-28T21:06:52.135Z,102396.76
2023-02-28T21:09:20.593Z,102395.52
2023-02-28T21:11:49.633Z,102393.95
2023-02-28T21:14:18.531Z,102395.45
2023-02-28T21:16:47.281Z,102400.06
2023-02-28T21:19:21.879Z,102405.65
2023-02-28T21:21:54.746Z,102405.79
2023-02-28T21:24:23.085Z,102403.95
2023-02-28T21:26:53.076Z,102402.68
2023-02-28T21:29:21.426Z,102397.36
2023-02-28T21:31:55.053Z,102395.33
2023-02-28T21:34:23.846Z,102396.43
2023-02-28T21:36:52.414Z,102398.08
2023-02-28T21:39:30.301Z,102397.98
2023-02-28T21:42:04.310Z,102398.45
2023-02-28T21:44:34.930Z,102397.79
2023-02-28T21:47:03.433Z,102397.33
2023-02-28T21:49:33.007Z,102397.52
2023-02-28T21:52:02.057Z,102393.27
2023-02-28T21:54:30.453Z,102388.02
2023-02-28T21:57:00.401Z,102385.77
2023-02-28T21:59:32.344Z,102393.86
2023-02-28T22:02:01.078Z,102394.49
2023-02-28T22:04:29.455Z,102395.32
2023-02-28T22:06:58.306Z,102393.16
2023-02-28T22:09:28.024Z,102396.05
2023-02-28T22:11:58.156Z,102393.20
2023-02-28T22:14:27.079Z,102396.35
2023-02-28T22:16:57.336Z,102396.20
2023-02-28T22:19:28.381Z,102404.41
2023-02-28T22:22:01.162Z,102401.52
2023-02-28T22:24:29.962Z,102398.82
2023-02-28T22:26:58.881Z,102394.51
2023-02-28T22:29:27.223Z,102392.27
2023-02-28T22:31:55.972Z,102391.36
2023-02-28T22:34:24.118Z,102393.46
2023-02-28T22:36:52.613Z,102394.98
2023-02-28T22:39:21.524Z,102395.77
2023-02-28T22:41:50.215Z,102389.05
2023-02-28T22:44:23.231Z,102376.81
2023-02-28T22:47:01.029Z,102375.36
2023-02-28T22:49:29.902Z,102377.13
2023-02-28T22:51:58.189Z,102382.45
2023-02-28T22:54:29.532Z,102386.43
2023-02-28T22:56:58.174Z,102387.09
2023-02-28T22:59:27.646Z,102385.14
2023-02-28T23:01:56.442Z,102384.83
2023-02-28T23:04:26.995Z,102390.42
2023-02-28T23:06:55.704Z,102387.80
2023-02-28T23:09:25.680Z,102391.18
2023-02-28T23:11:54.670Z,102384.02
2023-02-28T23:14:23.268Z,102382.55
2023-02-28T23:16:55.157Z,102382.66
2023-02-28T23:19:30.474Z,102380.05
2023-02-28T23:22:00.548Z,102378.42
2023-02-28T23:24:33.056Z,102382.42
2023-02-28T23:27:05.096Z,102374.65
2023-02-28T23:29:34.479Z,102377.94
2023-02-28T23:32:03.470Z,102384.91
2023-02-28T23:34:34.530Z,102387.67
2023-02-28T23:37:03.015Z,102388.86
2023-02-28T23:39:32.043Z,102387.02
2023-02-28T23:42:00.513Z,102385.17
2023-02-28T23:44:29.519Z,102380.61
2023-02-28T23:46:57.890Z,102382.24
2023-02-28T23:49:29.243Z,102384.71
2023-02-28T23:51:57.965Z,102385.42
2023-02-28T23:54:30.562Z,102386.29
2023-02-28T23:56:59.044Z,102393.39
2023-02-28T23:59:27.799Z,102398.98
